sensor_id;sensor_type;location;lat;lon;timestamp;P1;durP1;ratioP1;P2;durP2;ratioP2
34234;SDS011;20500;49.856;20.290;2022-11-20T00:01:56;77.80;;;46.10;;
34234;SDS011;20500;49.856;20.290;2022-11-20T00:05:04;69.30;;;42.80;;
34234;SDS011;20500;49.856;20.290;2022-11-20T00:08:11;71.20;;;43.70;;
34234;SDS011;20500;49.856;20.290;2022-11-20T00:11:18;73.10;;;44.30;;
34234;SDS011;20500;49.856;20.290;2022-11-20T00:14:26;71.30;;;42.50;;
34234;SDS011;20500;49.856;20.290;2022-11-20T00:17:32;74.10;;;43.90;;
34234;SDS011;20500;49.856;20.290;2022-11-20T00:23:43;66.50;;;40.80;;
34234;SDS011;20500;49.856;20.290;2022-11-20T00:26:50;66.10;;;42.50;;
34234;SDS011;20500;49.856;20.290;2022-11-20T00:33:01;71.80;;;43.10;;
34234;SDS011;20500;49.856;20.290;2022-11-20T00:39:13;68.80;;;42.40;;
34234;SDS011;20500;49.856;20.290;2022-11-20T00:42:20;71.40;;;41.40;;
34234;SDS011;20500;49.856;20.290;2022-11-20T00:45:26;66.90;;;42.80;;
34234;SDS011;20500;49.856;20.290;2022-11-20T00:48:33;66.00;;;42.40;;
34234;SDS011;20500;49.856;20.290;2022-11-20T00:51:39;68.10;;;41.80;;
34234;SDS011;20500;49.856;20.290;2022-11-20T00:54:45;68.10;;;40.20;;
34234;SDS011;20500;49.856;20.290;2022-11-20T01:01:00;61.80;;;39.90;;
34234;SDS011;20500;49.856;20.290;2022-11-20T01:04:08;64.00;;;40.70;;
34234;SDS011;20500;49.856;20.290;2022-11-20T01:10:19;57.90;;;38.10;;
34234;SDS011;20500;49.856;20.290;2022-11-20T01:16:42;65.80;;;42.10;;
34234;SDS011;20500;49.856;20.290;2022-11-20T01:19:50;67.70;;;43.40;;
34234;SDS011;20500;49.856;20.290;2022-11-20T01:22:56;63.90;;;41.70;;
34234;SDS011;20500;49.856;20.290;2022-11-20T01:29:08;63.20;;;38.80;;
34234;SDS011;20500;49.856;20.290;2022-11-20T01:32:17;61.10;;;38.70;;
34234;SDS011;20500;49.856;20.290;2022-11-20T01:35:24;60.20;;;37.90;;
34234;SDS011;20500;49.856;20.290;2022-11-20T01:38:30;61.80;;;41.10;;
34234;SDS011;20500;49.856;20.290;2022-11-20T01:41:36;66.50;;;40.40;;
34234;SDS011;20500;49.856;20.290;2022-11-20T01:45:00;62.00;;;39.20;;
34234;SDS011;20500;49.856;20.290;2022-11-20T01:48:20;64.50;;;39.10;;
34234;SDS011;20500;49.856;20.290;2022-11-20T01:51:29;62.30;;;39.80;;
34234;SDS011;20500;49.856;20.290;2022-11-20T01:54:39;57.80;;;38.10;;
34234;SDS011;20500;49.856;20.290;2022-11-20T01:57:51;64.50;;;41.00;;
34234;SDS011;20500;49.856;20.290;2022-11-20T02:00:58;65.10;;;40.70;;
34234;SDS011;20500;49.856;20.290;2022-11-20T02:04:05;66.90;;;40.90;;
34234;SDS011;20500;49.856;20.290;2022-11-20T02:07:12;62.00;;;40.60;;
34234;SDS011;20500;49.856;20.290;2022-11-20T02:10:20;58.40;;;39.50;;
34234;SDS011;20500;49.856;20.290;2022-11-20T02:13:27;62.10;;;39.40;;
34234;SDS011;20500;49.856;20.290;2022-11-20T02:16:49;60.90;;;38.30;;
34234;SDS011;20500;49.856;20.290;2022-11-20T02:19:55;59.70;;;39.00;;
34234;SDS011;20500;49.856;20.290;2022-11-20T02:23:03;60.80;;;38.50;;
34234;SDS011;20500;49.856;20.290;2022-11-20T02:26:16;60.00;;;37.90;;
34234;SDS011;20500;49.856;20.290;2022-11-20T02:29:25;59.50;;;37.40;;
34234;SDS011;20500;49.856;20.290;2022-11-20T02:32:43;57.80;;;39.30;;
34234;SDS011;20500;49.856;20.290;2022-11-20T02:35:49;62.40;;;39.60;;
34234;SDS011;20500;49.856;20.290;2022-11-20T02:38:56;57.90;;;37.90;;
34234;SDS011;20500;49.856;20.290;2022-11-20T02:42:02;58.40;;;38.10;;
34234;SDS011;20500;49.856;20.290;2022-11-20T02:45:09;55.50;;;36.20;;
34234;SDS011;20500;49.856;20.290;2022-11-20T02:48:16;59.30;;;37.80;;
34234;SDS011;20500;49.856;20.290;2022-11-20T02:51:23;60.10;;;37.70;;
34234;SDS011;20500;49.856;20.290;2022-11-20T02:54:29;60.10;;;39.30;;
34234;SDS011;20500;49.856;20.290;2022-11-20T02:57:36;55.30;;;35.40;;
34234;SDS011;20500;49.856;20.290;2022-11-20T03:03:46;60.40;;;36.00;;
34234;SDS011;20500;49.856;20.290;2022-11-20T03:06:53;55.70;;;36.00;;
34234;SDS011;20500;49.856;20.290;2022-11-20T03:09:59;59.20;;;36.50;;
34234;SDS011;20500;49.856;20.290;2022-11-20T03:16:11;54.10;;;35.90;;
34234;SDS011;20500;49.856;20.290;2022-11-20T03:19:19;57.60;;;36.40;;
34234;SDS011;20500;49.856;20.290;2022-11-20T03:22:26;57.50;;;36.20;;
34234;SDS011;20500;49.856;20.290;2022-11-20T03:25:34;57.60;;;37.10;;
34234;SDS011;20500;49.856;20.290;2022-11-20T03:28:41;55.50;;;38.60;;
34234;SDS011;20500;49.856;20.290;2022-11-20T03:31:52;57.40;;;35.30;;
34234;SDS011;20500;49.856;20.290;2022-11-20T03:38:03;55.10;;;34.00;;
34234;SDS011;20500;49.856;20.290;2022-11-20T03:41:10;54.60;;;35.20;;
34234;SDS011;20500;49.856;20.290;2022-11-20T03:44:18;55.60;;;33.80;;
34234;SDS011;20500;49.856;20.290;2022-11-20T03:47:27;53.70;;;34.10;;
34234;SDS011;20500;49.856;20.290;2022-11-20T03:50:33;52.40;;;34.80;;
34234;SDS011;20500;49.856;20.290;2022-11-20T03:53:40;57.20;;;36.80;;
34234;SDS011;20500;49.856;20.290;2022-11-20T03:56:47;53.30;;;34.40;;
34234;SDS011;20500;49.856;20.290;2022-11-20T04:02:59;54.20;;;34.60;;
34234;SDS011;20500;49.856;20.290;2022-11-20T04:06:07;53.20;;;33.60;;
34234;SDS011;20500;49.856;20.290;2022-11-20T04:09:15;55.30;;;33.60;;
34234;SDS011;20500;49.856;20.290;2022-11-20T04:12:22;49.70;;;32.20;;
34234;SDS011;20500;49.856;20.290;2022-11-20T04:18:40;48.80;;;31.10;;
34234;SDS011;20500;49.856;20.290;2022-11-20T04:21:46;49.80;;;29.80;;
34234;SDS011;20500;49.856;20.290;2022-11-20T04:24:53;53.10;;;31.80;;
34234;SDS011;20500;49.856;20.290;2022-11-20T04:31:05;54.00;;;32.40;;
34234;SDS011;20500;49.856;20.290;2022-11-20T04:34:12;52.70;;;34.20;;
34234;SDS011;20500;49.856;20.290;2022-11-20T04:37:18;50.40;;;31.70;;
34234;SDS011;20500;49.856;20.290;2022-11-20T04:43:29;50.20;;;31.60;;
34234;SDS011;20500;49.856;20.290;2022-11-20T04:46:37;50.00;;;30.50;;
34234;SDS011;20500;49.856;20.290;2022-11-20T04:49:44;47.70;;;29.90;;
34234;SDS011;20500;49.856;20.290;2022-11-20T04:52:51;50.40;;;31.80;;
34234;SDS011;20500;49.856;20.290;2022-11-20T04:56:00;46.80;;;29.30;;
34234;SDS011;20500;49.856;20.290;2022-11-20T04:59:07;47.90;;;30.20;;
34234;SDS011;20500;49.856;20.290;2022-11-20T05:02:14;51.60;;;30.90;;
34234;SDS011;20500;49.856;20.290;2022-11-20T05:05:20;52.30;;;31.50;;
34234;SDS011;20500;49.856;20.290;2022-11-20T05:11:31;53.40;;;30.60;;
34234;SDS011;20500;49.856;20.290;2022-11-20T05:14:38;53.20;;;31.90;;
34234;SDS011;20500;49.856;20.290;2022-11-20T05:17:47;55.40;;;33.20;;
34234;SDS011;20500;49.856;20.290;2022-11-20T05:20:56;53.10;;;33.80;;
34234;SDS011;20500;49.856;20.290;2022-11-20T05:24:02;55.40;;;32.70;;
34234;SDS011;20500;49.856;20.290;2022-11-20T05:27:10;54.20;;;33.00;;
34234;SDS011;20500;49.856;20.290;2022-11-20T05:33:21;54.60;;;32.60;;
34234;SDS011;20500;49.856;20.290;2022-11-20T05:36:28;53.00;;;33.30;;
34234;SDS011;20500;49.856;20.290;2022-11-20T05:39:35;58.50;;;35.40;;
34234;SDS011;20500;49.856;20.290;2022-11-20T05:42:42;56.60;;;36.00;;
34234;SDS011;20500;49.856;20.290;2022-11-20T05:48:58;53.40;;;33.80;;
34234;SDS011;20500;49.856;20.290;2022-11-20T05:52:04;53.90;;;35.60;;
34234;SDS011;20500;49.856;20.290;2022-11-20T05:55:11;60.80;;;36.50;;
34234;SDS011;20500;49.856;20.290;2022-11-20T05:58:17;56.40;;;35.40;;
34234;SDS011;20500;49.856;20.290;2022-11-20T06:04:29;54.90;;;35.60;;
34234;SDS011;20500;49.856;20.290;2022-11-20T06:07:35;58.30;;;36.70;;
34234;SDS011;20500;49.856;20.290;2022-11-20T06:10:42;54.60;;;35.50;;
34234;SDS011;20500;49.856;20.290;2022-11-20T06:16:52;57.70;;;35.80;;
34234;SDS011;20500;49.856;20.290;2022-11-20T06:23:03;54.30;;;34.80;;
34234;SDS011;20500;49.856;20.290;2022-11-20T06:26:10;54.20;;;35.30;;
34234;SDS011;20500;49.856;20.290;2022-11-20T06:29:18;62.50;;;38.80;;
34234;SDS011;20500;49.856;20.290;2022-11-20T06:32:25;55.40;;;36.10;;
34234;SDS011;20500;49.856;20.290;2022-11-20T06:38:36;60.30;;;36.50;;
34234;SDS011;20500;49.856;20.290;2022-11-20T06:41:43;58.90;;;36.50;;
34234;SDS011;20500;49.856;20.290;2022-11-20T06:47:54;59.10;;;35.90;;
34234;SDS011;20500;49.856;20.290;2022-11-20T06:51:04;55.70;;;34.00;;
34234;SDS011;20500;49.856;20.290;2022-11-20T06:54:11;52.80;;;33.20;;
34234;SDS011;20500;49.856;20.290;2022-11-20T06:57:18;63.70;;;38.50;;
34234;SDS011;20500;49.856;20.290;2022-11-20T07:03:29;70.60;;;43.90;;
34234;SDS011;20500;49.856;20.290;2022-11-20T07:06:35;74.60;;;44.40;;
34234;SDS011;20500;49.856;20.290;2022-11-20T07:09:42;75.90;;;47.10;;
34234;SDS011;20500;49.856;20.290;2022-11-20T07:15:55;75.40;;;47.70;;
34234;SDS011;20500;49.856;20.290;2022-11-20T07:19:05;74.70;;;47.30;;
34234;SDS011;20500;49.856;20.290;2022-11-20T07:22:11;65.20;;;43.40;;
34234;SDS011;20500;49.856;20.290;2022-11-20T07:25:18;60.70;;;40.10;;
34234;SDS011;20500;49.856;20.290;2022-11-20T07:28:25;62.90;;;40.10;;
34234;SDS011;20500;49.856;20.290;2022-11-20T07:34:36;68.00;;;43.60;;
34234;SDS011;20500;49.856;20.290;2022-11-20T07:37:42;65.00;;;43.80;;
34234;SDS011;20500;49.856;20.290;2022-11-20T07:40:51;66.70;;;42.70;;
34234;SDS011;20500;49.856;20.290;2022-11-20T07:44:00;66.10;;;42.60;;
34234;SDS011;20500;49.856;20.290;2022-11-20T07:47:07;63.40;;;41.60;;
34234;SDS011;20500;49.856;20.290;2022-11-20T07:53:18;68.00;;;41.50;;
34234;SDS011;20500;49.856;20.290;2022-11-20T07:59:29;62.50;;;41.90;;
34234;SDS011;20500;49.856;20.290;2022-11-20T08:05:40;63.10;;;41.10;;
34234;SDS011;20500;49.856;20.290;2022-11-20T08:11:51;61.00;;;39.00;;
34234;SDS011;20500;49.856;20.290;2022-11-20T08:15:11;60.80;;;40.10;;
34234;SDS011;20500;49.856;20.290;2022-11-20T08:21:34;65.80;;;41.80;;
34234;SDS011;20500;49.856;20.290;2022-11-20T08:24:41;63.20;;;40.20;;
34234;SDS011;20500;49.856;20.290;2022-11-20T08:30:57;62.60;;;40.70;;
34234;SDS011;20500;49.856;20.290;2022-11-20T08:34:04;63.40;;;41.60;;
34234;SDS011;20500;49.856;20.290;2022-11-20T08:37:11;66.00;;;42.90;;
34234;SDS011;20500;49.856;20.290;2022-11-20T08:43:23;66.50;;;42.20;;
34234;SDS011;20500;49.856;20.290;2022-11-20T08:46:30;67.50;;;42.80;;
34234;SDS011;20500;49.856;20.290;2022-11-20T08:49:39;63.20;;;42.10;;
34234;SDS011;20500;49.856;20.290;2022-11-20T08:55:50;71.10;;;43.70;;
34234;SDS011;20500;49.856;20.290;2022-11-20T09:02:23;91.80;;;55.00;;
34234;SDS011;20500;49.856;20.290;2022-11-20T09:05:29;97.00;;;63.40;;
34234;SDS011;20500;49.856;20.290;2022-11-20T09:08:36;75.80;;;48.80;;
34234;SDS011;20500;49.856;20.290;2022-11-20T09:14:47;66.60;;;44.50;;
34234;SDS011;20500;49.856;20.290;2022-11-20T09:17:57;60.20;;;39.60;;
34234;SDS011;20500;49.856;20.290;2022-11-20T09:21:05;70.30;;;43.10;;
34234;SDS011;20500;49.856;20.290;2022-11-20T09:24:14;67.50;;;43.80;;
34234;SDS011;20500;49.856;20.290;2022-11-20T09:27:20;65.30;;;42.80;;
34234;SDS011;20500;49.856;20.290;2022-11-20T09:33:31;62.20;;;39.50;;
34234;SDS011;20500;49.856;20.290;2022-11-20T09:36:38;56.80;;;37.70;;
34234;SDS011;20500;49.856;20.290;2022-11-20T09:39:45;61.60;;;40.50;;
34234;SDS011;20500;49.856;20.290;2022-11-20T09:46:01;57.40;;;35.70;;
34234;SDS011;20500;49.856;20.290;2022-11-20T09:49:22;57.60;;;35.70;;
34234;SDS011;20500;49.856;20.290;2022-11-20T09:52:39;58.00;;;37.20;;
34234;SDS011;20500;49.856;20.290;2022-11-20T09:55:57;53.50;;;34.00;;
34234;SDS011;20500;49.856;20.290;2022-11-20T09:59:05;54.20;;;34.40;;
34234;SDS011;20500;49.856;20.290;2022-11-20T10:02:25;51.60;;;33.70;;
34234;SDS011;20500;49.856;20.290;2022-11-20T10:05:35;49.10;;;32.40;;
34234;SDS011;20500;49.856;20.290;2022-11-20T10:08:47;46.00;;;30.30;;
34234;SDS011;20500;49.856;20.290;2022-11-20T10:12:04;47.10;;;30.30;;
34234;SDS011;20500;49.856;20.290;2022-11-20T10:15:21;49.90;;;31.10;;
34234;SDS011;20500;49.856;20.290;2022-11-20T10:18:39;48.20;;;30.50;;
34234;SDS011;20500;49.856;20.290;2022-11-20T10:21:58;48.50;;;30.20;;
34234;SDS011;20500;49.856;20.290;2022-11-20T10:25:13;50.00;;;33.90;;
34234;SDS011;20500;49.856;20.290;2022-11-20T10:28:27;52.20;;;33.30;;
34234;SDS011;20500;49.856;20.290;2022-11-20T10:32:00;52.10;;;34.90;;
34234;SDS011;20500;49.856;20.290;2022-11-20T10:35:14;50.70;;;33.30;;
34234;SDS011;20500;49.856;20.290;2022-11-20T10:38:31;55.30;;;36.10;;
34234;SDS011;20500;49.856;20.290;2022-11-20T10:41:42;51.00;;;35.20;;
34234;SDS011;20500;49.856;20.290;2022-11-20T10:44:55;56.70;;;38.00;;
34234;SDS011;20500;49.856;20.290;2022-11-20T10:48:16;54.70;;;37.60;;
34234;SDS011;20500;49.856;20.290;2022-11-20T10:51:33;53.30;;;35.80;;
34234;SDS011;20500;49.856;20.290;2022-11-20T10:54:46;51.10;;;35.10;;
34234;SDS011;20500;49.856;20.290;2022-11-20T10:58:03;56.40;;;38.50;;
34234;SDS011;20500;49.856;20.290;2022-11-20T11:01:18;57.40;;;36.80;;
34234;SDS011;20500;49.856;20.290;2022-11-20T11:04:32;56.30;;;38.40;;
34234;SDS011;20500;49.856;20.290;2022-11-20T11:07:41;59.30;;;40.50;;
34234;SDS011;20500;49.856;20.290;2022-11-20T11:10:50;58.50;;;40.90;;
34234;SDS011;20500;49.856;20.290;2022-11-20T11:14:05;62.20;;;40.80;;
34234;SDS011;20500;49.856;20.290;2022-11-20T11:17:22;58.20;;;39.50;;
34234;SDS011;20500;49.856;20.290;2022-11-20T11:20:31;59.50;;;39.30;;
34234;SDS011;20500;49.856;20.290;2022-11-20T11:26:50;60.60;;;40.00;;
34234;SDS011;20500;49.856;20.290;2022-11-20T11:33:09;57.40;;;39.00;;
34234;SDS011;20500;49.856;20.290;2022-11-20T11:36:23;56.40;;;37.70;;
34234;SDS011;20500;49.856;20.290;2022-11-20T11:42:34;53.40;;;36.90;;
34234;SDS011;20500;49.856;20.290;2022-11-20T11:45:52;57.80;;;38.10;;
34234;SDS011;20500;49.856;20.290;2022-11-20T11:48:59;59.30;;;42.00;;
34234;SDS011;20500;49.856;20.290;2022-11-20T11:52:17;64.50;;;42.90;;
34234;SDS011;20500;49.856;20.290;2022-11-20T11:55:28;65.40;;;44.40;;
34234;SDS011;20500;49.856;20.290;2022-11-20T11:58:44;65.90;;;44.30;;
34234;SDS011;20500;49.856;20.290;2022-11-20T12:01:53;65.40;;;44.40;;
34234;SDS011;20500;49.856;20.290;2022-11-20T12:05:05;63.60;;;41.40;;
34234;SDS011;20500;49.856;20.290;2022-11-20T12:08:21;64.30;;;42.10;;
34234;SDS011;20500;49.856;20.290;2022-11-20T12:11:33;63.40;;;43.10;;
34234;SDS011;20500;49.856;20.290;2022-11-20T12:14:45;62.60;;;42.60;;
34234;SDS011;20500;49.856;20.290;2022-11-20T12:17:55;64.10;;;43.70;;
34234;SDS011;20500;49.856;20.290;2022-11-20T12:21:06;62.00;;;42.40;;
34234;SDS011;20500;49.856;20.290;2022-11-20T12:24:32;60.60;;;41.50;;
34234;SDS011;20500;49.856;20.290;2022-11-20T12:28:01;60.50;;;41.70;;
34234;SDS011;20500;49.856;20.290;2022-11-20T12:31:29;64.40;;;43.00;;
34234;SDS011;20500;49.856;20.290;2022-11-20T12:34:46;68.30;;;44.40;;
34234;SDS011;20500;49.856;20.290;2022-11-20T12:38:04;63.10;;;42.70;;
34234;SDS011;20500;49.856;20.290;2022-11-20T12:41:35;60.40;;;41.40;;
34234;SDS011;20500;49.856;20.290;2022-11-20T12:52:40;61.20;;;42.40;;
34234;SDS011;20500;49.856;20.290;2022-11-20T12:55:53;58.00;;;41.20;;
34234;SDS011;20500;49.856;20.290;2022-11-20T12:59:14;60.20;;;42.70;;
34234;SDS011;20500;49.856;20.290;2022-11-20T13:02:36;56.50;;;39.60;;
34234;SDS011;20500;49.856;20.290;2022-11-20T13:06:05;60.60;;;42.70;;
34234;SDS011;20500;49.856;20.290;2022-11-20T13:09:18;57.80;;;40.10;;
34234;SDS011;20500;49.856;20.290;2022-11-20T13:12:28;64.20;;;43.20;;
34234;SDS011;20500;49.856;20.290;2022-11-20T13:15:42;61.50;;;41.20;;
34234;SDS011;20500;49.856;20.290;2022-11-20T13:18:54;59.30;;;40.50;;
34234;SDS011;20500;49.856;20.290;2022-11-20T13:22:07;61.30;;;41.80;;
34234;SDS011;20500;49.856;20.290;2022-11-20T13:25:23;62.30;;;41.90;;
34234;SDS011;20500;49.856;20.290;2022-11-20T13:28:31;64.50;;;45.40;;
34234;SDS011;20500;49.856;20.290;2022-11-20T13:31:39;62.10;;;43.60;;
34234;SDS011;20500;49.856;20.290;2022-11-20T13:34:52;60.20;;;41.40;;
34234;SDS011;20500;49.856;20.290;2022-11-20T13:38:07;56.70;;;41.40;;
34234;SDS011;20500;49.856;20.290;2022-11-20T13:41:24;55.70;;;38.60;;
34234;SDS011;20500;49.856;20.290;2022-11-20T13:44:37;55.90;;;38.40;;
34234;SDS011;20500;49.856;20.290;2022-11-20T13:47:48;58.90;;;39.80;;
34234;SDS011;20500;49.856;20.290;2022-11-20T13:51:07;56.20;;;37.80;;
34234;SDS011;20500;49.856;20.290;2022-11-20T13:58:06;58.60;;;40.80;;
34234;SDS011;20500;49.856;20.290;2022-11-20T14:01:35;69.80;;;45.90;;
34234;SDS011;20500;49.856;20.290;2022-11-20T14:04:43;62.80;;;44.40;;
34234;SDS011;20500;49.856;20.290;2022-11-20T14:07:52;67.50;;;46.80;;
34234;SDS011;20500;49.856;20.290;2022-11-20T14:11:04;67.10;;;44.50;;
34234;SDS011;20500;49.856;20.290;2022-11-20T14:14:19;67.80;;;46.70;;
34234;SDS011;20500;49.856;20.290;2022-11-20T14:17:31;64.70;;;43.40;;
34234;SDS011;20500;49.856;20.290;2022-11-20T14:20:38;72.40;;;47.60;;
34234;SDS011;20500;49.856;20.290;2022-11-20T14:23:46;66.30;;;44.90;;
34234;SDS011;20500;49.856;20.290;2022-11-20T14:29:57;67.30;;;44.70;;
34234;SDS011;20500;49.856;20.290;2022-11-20T14:33:09;76.90;;;51.60;;
34234;SDS011;20500;49.856;20.290;2022-11-20T14:36:17;73.70;;;49.10;;
34234;SDS011;20500;49.856;20.290;2022-11-20T14:39:28;96.10;;;63.10;;
34234;SDS011;20500;49.856;20.290;2022-11-20T14:42:37;78.60;;;53.20;;
34234;SDS011;20500;49.856;20.290;2022-11-20T14:45:51;85.20;;;58.20;;
34234;SDS011;20500;49.856;20.290;2022-11-20T14:49:02;72.20;;;48.90;;
34234;SDS011;20500;49.856;20.290;2022-11-20T14:52:12;71.70;;;48.70;;
34234;SDS011;20500;49.856;20.290;2022-11-20T14:55:30;74.60;;;51.90;;
34234;SDS011;20500;49.856;20.290;2022-11-20T14:58:37;72.10;;;47.80;;
34234;SDS011;20500;49.856;20.290;2022-11-20T15:04:59;92.30;;;61.40;;
34234;SDS011;20500;49.856;20.290;2022-11-20T15:08:08;95.00;;;62.50;;
34234;SDS011;20500;49.856;20.290;2022-11-20T15:11:17;83.90;;;56.60;;
34234;SDS011;20500;49.856;20.290;2022-11-20T15:14:30;88.20;;;57.70;;
34234;SDS011;20500;49.856;20.290;2022-11-20T15:17:37;87.40;;;57.10;;
34234;SDS011;20500;49.856;20.290;2022-11-20T15:20:44;97.30;;;62.80;;
34234;SDS011;20500;49.856;20.290;2022-11-20T15:23:52;75.40;;;49.10;;
34234;SDS011;20500;49.856;20.290;2022-11-20T15:26:58;90.50;;;56.00;;
34234;SDS011;20500;49.856;20.290;2022-11-20T15:30:07;66.00;;;44.60;;
34234;SDS011;20500;49.856;20.290;2022-11-20T15:33:19;67.90;;;43.90;;
34234;SDS011;20500;49.856;20.290;2022-11-20T15:36:26;61.10;;;42.90;;
34234;SDS011;20500;49.856;20.290;2022-11-20T15:39:32;71.60;;;47.70;;
34234;SDS011;20500;49.856;20.290;2022-11-20T15:42:39;68.40;;;45.60;;
34234;SDS011;20500;49.856;20.290;2022-11-20T15:46:12;67.70;;;44.30;;
34234;SDS011;20500;49.856;20.290;2022-11-20T15:49:20;71.40;;;47.90;;
34234;SDS011;20500;49.856;20.290;2022-11-20T15:52:26;81.10;;;52.00;;
34234;SDS011;20500;49.856;20.290;2022-11-20T15:55:44;81.00;;;53.90;;
34234;SDS011;20500;49.856;20.290;2022-11-20T15:58:50;69.50;;;47.80;;
34234;SDS011;20500;49.856;20.290;2022-11-20T16:01:57;66.10;;;46.10;;
34234;SDS011;20500;49.856;20.290;2022-11-20T16:08:08;63.00;;;42.00;;
34234;SDS011;20500;49.856;20.290;2022-11-20T16:11:15;63.90;;;42.20;;
34234;SDS011;20500;49.856;20.290;2022-11-20T16:14:22;64.60;;;43.80;;
34234;SDS011;20500;49.856;20.290;2022-11-20T16:17:46;66.80;;;44.10;;
34234;SDS011;20500;49.856;20.290;2022-11-20T16:23:58;83.30;;;55.80;;
34234;SDS011;20500;49.856;20.290;2022-11-20T16:27:05;87.90;;;55.40;;
34234;SDS011;20500;49.856;20.290;2022-11-20T16:30:13;71.20;;;47.00;;
34234;SDS011;20500;49.856;20.290;2022-11-20T16:33:19;59.40;;;41.80;;
34234;SDS011;20500;49.856;20.290;2022-11-20T16:36:26;66.00;;;43.80;;
34234;SDS011;20500;49.856;20.290;2022-11-20T16:39:34;76.20;;;48.30;;
34234;SDS011;20500;49.856;20.290;2022-11-20T16:42:40;79.20;;;52.80;;
34234;SDS011;20500;49.856;20.290;2022-11-20T16:48:53;70.90;;;46.90;;
34234;SDS011;20500;49.856;20.290;2022-11-20T16:52:01;86.80;;;57.50;;
34234;SDS011;20500;49.856;20.290;2022-11-20T16:55:08;93.60;;;57.20;;
34234;SDS011;20500;49.856;20.290;2022-11-20T16:58:14;85.50;;;55.10;;
34234;SDS011;20500;49.856;20.290;2022-11-20T17:01:22;86.00;;;57.10;;
34234;SDS011;20500;49.856;20.290;2022-11-20T17:04:30;87.80;;;56.30;;
34234;SDS011;20500;49.856;20.290;2022-11-20T17:10:41;84.40;;;55.30;;
34234;SDS011;20500;49.856;20.290;2022-11-20T17:16:52;88.50;;;57.30;;
34234;SDS011;20500;49.856;20.290;2022-11-20T17:23:03;84.70;;;58.70;;
34234;SDS011;20500;49.856;20.290;2022-11-20T17:26:10;88.70;;;58.10;;
34234;SDS011;20500;49.856;20.290;2022-11-20T17:29:19;92.10;;;59.70;;
34234;SDS011;20500;49.856;20.290;2022-11-20T17:32:26;96.10;;;64.90;;
34234;SDS011;20500;49.856;20.290;2022-11-20T17:35:33;108.30;;;75.00;;
34234;SDS011;20500;49.856;20.290;2022-11-20T17:38:40;113.20;;;77.60;;
34234;SDS011;20500;49.856;20.290;2022-11-20T17:41:48;121.60;;;86.60;;
34234;SDS011;20500;49.856;20.290;2022-11-20T17:45:08;123.00;;;87.50;;
34234;SDS011;20500;49.856;20.290;2022-11-20T17:48:14;139.20;;;95.80;;
34234;SDS011;20500;49.856;20.290;2022-11-20T17:51:21;135.80;;;93.30;;
34234;SDS011;20500;49.856;20.290;2022-11-20T17:54:29;126.60;;;91.30;;
34234;SDS011;20500;49.856;20.290;2022-11-20T17:57:36;130.10;;;90.20;;
34234;SDS011;20500;49.856;20.290;2022-11-20T18:01:04;121.40;;;88.80;;
34234;SDS011;20500;49.856;20.290;2022-11-20T18:04:11;117.30;;;82.30;;
34234;SDS011;20500;49.856;20.290;2022-11-20T18:07:18;113.60;;;80.00;;
34234;SDS011;20500;49.856;20.290;2022-11-20T18:10:27;101.90;;;71.90;;
34234;SDS011;20500;49.856;20.290;2022-11-20T18:13:34;104.50;;;73.40;;
34234;SDS011;20500;49.856;20.290;2022-11-20T18:16:58;109.20;;;75.50;;
34234;SDS011;20500;49.856;20.290;2022-11-20T18:20:06;108.20;;;76.00;;
34234;SDS011;20500;49.856;20.290;2022-11-20T18:23:33;116.60;;;79.40;;
34234;SDS011;20500;49.856;20.290;2022-11-20T18:26:40;99.30;;;69.90;;
34234;SDS011;20500;49.856;20.290;2022-11-20T18:29:46;102.50;;;68.00;;
34234;SDS011;20500;49.856;20.290;2022-11-20T18:32:54;100.80;;;71.20;;
34234;SDS011;20500;49.856;20.290;2022-11-20T18:39:13;140.80;;;92.80;;
34234;SDS011;20500;49.856;20.290;2022-11-20T18:42:20;124.80;;;83.00;;
34234;SDS011;20500;49.856;20.290;2022-11-20T18:45:43;109.90;;;74.90;;
34234;SDS011;20500;49.856;20.290;2022-11-20T18:51:54;99.50;;;69.10;;
34234;SDS011;20500;49.856;20.290;2022-11-20T18:58:06;98.60;;;65.70;;
34234;SDS011;20500;49.856;20.290;2022-11-20T19:04:17;96.50;;;63.50;;
34234;SDS011;20500;49.856;20.290;2022-11-20T19:07:25;96.50;;;65.40;;
34234;SDS011;20500;49.856;20.290;2022-11-20T19:10:32;105.00;;;68.60;;
34234;SDS011;20500;49.856;20.290;2022-11-20T19:13:39;90.90;;;61.00;;
34234;SDS011;20500;49.856;20.290;2022-11-20T19:16:46;109.10;;;70.90;;
34234;SDS011;20500;49.856;20.290;2022-11-20T19:19:53;108.90;;;75.50;;
34234;SDS011;20500;49.856;20.290;2022-11-20T19:26:04;114.10;;;76.70;;
34234;SDS011;20500;49.856;20.290;2022-11-20T19:29:11;121.90;;;78.60;;
34234;SDS011;20500;49.856;20.290;2022-11-20T19:32:19;108.40;;;76.40;;
34234;SDS011;20500;49.856;20.290;2022-11-20T19:35:26;108.60;;;74.30;;
34234;SDS011;20500;49.856;20.290;2022-11-20T19:41:37;111.90;;;73.40;;
34234;SDS011;20500;49.856;20.290;2022-11-20T19:44:45;110.60;;;73.50;;
34234;SDS011;20500;49.856;20.290;2022-11-20T19:51:10;99.40;;;69.10;;
34234;SDS011;20500;49.856;20.290;2022-11-20T19:54:18;106.00;;;66.40;;
34234;SDS011;20500;49.856;20.290;2022-11-20T20:00:29;91.30;;;59.70;;
34234;SDS011;20500;49.856;20.290;2022-11-20T20:03:36;85.90;;;57.10;;
34234;SDS011;20500;49.856;20.290;2022-11-20T20:06:42;81.50;;;53.40;;
34234;SDS011;20500;49.856;20.290;2022-11-20T20:09:49;78.00;;;52.20;;
34234;SDS011;20500;49.856;20.290;2022-11-20T20:16:00;109.00;;;70.00;;
34234;SDS011;20500;49.856;20.290;2022-11-20T20:19:11;95.50;;;63.00;;
34234;SDS011;20500;49.856;20.290;2022-11-20T20:22:18;95.30;;;66.10;;
34234;SDS011;20500;49.856;20.290;2022-11-20T20:28:30;86.00;;;56.60;;
34234;SDS011;20500;49.856;20.290;2022-11-20T20:31:36;89.60;;;58.70;;
34234;SDS011;20500;49.856;20.290;2022-11-20T20:37:47;110.90;;;72.70;;
34234;SDS011;20500;49.856;20.290;2022-11-20T20:43:58;124.20;;;77.60;;
34234;SDS011;20500;49.856;20.290;2022-11-20T20:47:23;121.60;;;79.20;;
34234;SDS011;20500;49.856;20.290;2022-11-20T20:50:35;126.20;;;82.50;;
34234;SDS011;20500;49.856;20.290;2022-11-20T20:56:46;141.90;;;88.00;;
34234;SDS011;20500;49.856;20.290;2022-11-20T20:59:53;132.80;;;83.10;;
34234;SDS011;20500;49.856;20.290;2022-11-20T21:06:05;127.80;;;76.00;;
34234;SDS011;20500;49.856;20.290;2022-11-20T21:09:13;121.70;;;76.40;;
34234;SDS011;20500;49.856;20.290;2022-11-20T21:12:20;126.00;;;78.60;;
34234;SDS011;20500;49.856;20.290;2022-11-20T21:18:31;117.70;;;74.50;;
34234;SDS011;20500;49.856;20.290;2022-11-20T21:21:38;117.60;;;74.20;;
34234;SDS011;20500;49.856;20.290;2022-11-20T21:25:03;115.50;;;71.10;;
34234;SDS011;20500;49.856;20.290;2022-11-20T21:28:10;118.30;;;73.50;;
34234;SDS011;20500;49.856;20.290;2022-11-20T21:31:21;137.50;;;83.30;;
34234;SDS011;20500;49.856;20.290;2022-11-20T21:34:28;120.70;;;77.50;;
34234;SDS011;20500;49.856;20.290;2022-11-20T21:40:43;112.30;;;73.20;;